createdAt,value
2017-08-11T00:00:15.823Z,15.20
2017-08-11T00:02:43.360Z,17.40
2017-08-11T00:05:10.919Z,17.37
2017-08-11T00:07:38.750Z,13.27
2017-08-11T00:10:06.255Z,16.63
2017-08-11T00:12:33.772Z,15.40
2017-08-11T00:15:01.599Z,15.37
2017-08-11T00:17:29.125Z,16.00
2017-08-11T00:19:56.634Z,16.53
2017-08-11T00:22:24.436Z,17.10
2017-08-11T00:24:51.948Z,22.90
2017-08-11T00:27:19.447Z,16.80
2017-08-11T00:29:47.010Z,20.67
2017-08-11T00:32:14.552Z,17.87
2017-08-11T00:34:42.087Z,17.90
2017-08-11T00:37:10.316Z,19.70
2017-08-11T00:39:37.831Z,14.23
2017-08-11T00:42:05.332Z,14.40
2017-08-11T00:44:32.925Z,16.10
2017-08-11T00:47:00.454Z,17.13
2017-08-11T00:49:28.013Z,13.57
2017-08-11T00:51:55.552Z,14.50
2017-08-11T00:54:23.047Z,13.90
2017-08-11T00:56:50.551Z,17.77
2017-08-11T00:59:18.083Z,13.70
2017-08-11T01:01:45.595Z,19.73
2017-08-11T01:04:13.147Z,12.60
2017-08-11T01:06:40.998Z,14.43
2017-08-11T01:09:08.554Z,12.80
2017-08-11T01:11:36.078Z,10.23
2017-08-11T01:14:03.616Z,11.60
2017-08-11T01:16:31.124Z,12.20
2017-08-11T01:18:58.656Z,12.20
2017-08-11T01:21:26.330Z,12.90
2017-08-11T01:23:53.835Z,9.90
2017-08-11T01:26:21.478Z,10.20
2017-08-11T01:28:49.047Z,13.17
2017-08-11T01:31:16.654Z,9.90
2017-08-11T01:33:44.462Z,11.90
2017-08-11T01:36:12.235Z,15.40
2017-08-11T01:38:39.748Z,9.07
2017-08-11T01:41:07.560Z,11.40
2017-08-11T01:43:35.063Z,10.10
2017-08-11T01:46:02.878Z,10.60
2017-08-11T01:48:30.447Z,10.70
2017-08-11T01:50:57.991Z,12.07
2017-08-11T01:53:25.487Z,10.10
2017-08-11T01:55:53.428Z,10.33
2017-08-11T01:58:21.037Z,7.10
2017-08-11T02:00:48.543Z,11.40
2017-08-11T02:03:16.318Z,13.37
2017-08-11T02:05:43.854Z,11.23
2017-08-11T02:08:11.370Z,9.00
2017-08-11T02:10:39.148Z,8.50
2017-08-11T02:13:06.735Z,9.47
2017-08-11T02:15:34.251Z,7.23
2017-08-11T02:18:01.915Z,6.37
2017-08-11T02:20:29.511Z,6.33
2017-08-11T02:22:57.140Z,7.07
2017-08-11T02:25:24.668Z,5.27
2017-08-11T02:27:52.175Z,8.27
2017-08-11T02:30:19.676Z,8.20
2017-08-11T02:32:47.223Z,7.20
2017-08-11T02:35:14.714Z,5.83
2017-08-11T02:37:42.439Z,6.83
2017-08-11T02:40:10.141Z,4.93
2017-08-11T02:42:38.126Z,6.87
2017-08-11T02:45:05.850Z,6.87
2017-08-11T02:47:33.410Z,5.30
2017-08-11T02:50:01.287Z,7.43
2017-08-11T02:52:28.843Z,7.00
2017-08-11T02:54:56.347Z,7.50
2017-08-11T02:57:24.059Z,6.40
2017-08-11T03:12:38.711Z,11.40
2017-08-11T03:15:06.586Z,9.23
2017-08-11T03:17:34.143Z,10.37
2017-08-11T03:20:02.278Z,15.10
2017-08-11T03:22:29.791Z,14.43
2017-08-11T03:24:57.621Z,22.00
2017-08-11T03:27:26.068Z,13.50
2017-08-11T03:29:53.753Z,10.83
2017-08-11T03:32:21.262Z,13.63
2017-08-11T03:34:49.242Z,11.20
2017-08-11T03:37:16.909Z,13.13
2017-08-11T03:39:44.418Z,14.87
2017-08-11T03:42:12.084Z,14.43
2017-08-11T03:44:39.591Z,15.80
2017-08-11T03:47:07.219Z,14.10
2017-08-11T03:49:34.805Z,17.03
2017-08-11T03:52:02.543Z,11.73
2017-08-11T03:54:30.105Z,14.83
2017-08-11T03:56:57.652Z,13.40
2017-08-11T03:59:25.174Z,16.30
2017-08-11T04:01:52.830Z,17.73
2017-08-11T04:04:20.542Z,17.10
2017-08-11T04:06:48.047Z,15.10
2017-08-11T04:09:15.607Z,13.77
2017-08-11T04:11:43.445Z,15.37
2017-08-11T04:14:10.947Z,13.07
2017-08-11T04:16:38.460Z,14.37
2017-08-11T04:19:06.354Z,11.87
2017-08-11T04:21:33.864Z,11.23
2017-08-11T04:24:01.363Z,19.47
2017-08-11T04:26:29.039Z,11.63
2017-08-11T04:28:56.680Z,8.73
2017-08-11T04:31:24.184Z,14.43
2017-08-11T04:33:51.730Z,9.83
2017-08-11T04:36:19.227Z,11.97
2017-08-11T04:38:46.798Z,14.00
2017-08-11T04:41:14.736Z,12.43
2017-08-11T04:43:42.383Z,10.40
2017-08-11T04:46:09.902Z,10.70
2017-08-11T04:48:37.576Z,9.17
2017-08-11T04:51:05.223Z,7.13
2017-08-11T04:53:32.720Z,11.57
2017-08-11T04:56:00.629Z,9.93
2017-08-11T04:58:28.155Z,14.83
2017-08-11T05:00:55.674Z,14.43
2017-08-11T05:03:23.262Z,11.37
2017-08-11T05:05:50.762Z,11.47
2017-08-11T05:08:18.307Z,13.43
2017-08-11T05:10:46.195Z,10.90
2017-08-11T05:13:13.779Z,10.83
2017-08-11T05:15:41.318Z,9.50
2017-08-11T05:18:08.839Z,10.43
2017-08-11T05:20:36.351Z,9.97
2017-08-11T05:23:03.853Z,7.70
2017-08-11T05:25:31.465Z,8.03
2017-08-11T05:27:58.975Z,16.97
2017-08-11T05:30:26.486Z,12.10
2017-08-11T05:32:54.043Z,10.13
2017-08-11T05:35:21.538Z,9.10
2017-08-11T05:37:49.038Z,8.20
2017-08-11T05:40:16.710Z,9.90
2017-08-11T05:42:44.243Z,10.20
2017-08-11T05:45:11.738Z,12.80
2017-08-11T05:47:39.298Z,10.20
2017-08-11T05:50:06.794Z,10.03
2017-08-11T05:52:34.342Z,15.47
2017-08-11T05:55:01.912Z,9.47
2017-08-11T05:57:29.429Z,8.70
2017-08-11T05:59:56.955Z,7.13
2017-08-11T06:02:24.767Z,9.37
2017-08-11T06:04:52.260Z,7.60
2017-08-11T06:07:19.764Z,7.87
2017-08-11T06:09:47.618Z,10.57
2017-08-11T06:12:15.147Z,11.13
2017-08-11T06:14:42.694Z,8.30
2017-08-11T06:17:10.610Z,8.20
2017-08-11T06:19:38.116Z,7.80
2017-08-11T06:22:05.627Z,10.37
2017-08-11T06:24:33.184Z,10.03
2017-08-11T06:27:00.778Z,8.40
2017-08-11T06:29:28.278Z,8.70
2017-08-11T06:31:56.166Z,8.47
2017-08-11T06:34:23.698Z,8.53
2017-08-11T06:36:51.204Z,8.13
2017-08-11T06:39:19.016Z,6.80
2017-08-11T06:41:46.513Z,7.67
2017-08-11T06:44:14.011Z,10.67
2017-08-11T06:46:41.925Z,7.00
2017-08-11T06:49:09.463Z,7.07
2017-08-11T06:51:37.031Z,6.60
2017-08-11T06:54:04.925Z,11.10
2017-08-11T06:56:32.427Z,8.57
2017-08-11T06:58:59.930Z,6.67
2017-08-11T07:01:27.830Z,7.20
2017-08-11T07:03:55.323Z,8.10
2017-08-11T07:06:22.852Z,10.33
2017-08-11T07:08:50.651Z,8.63
2017-08-11T07:11:18.161Z,6.67
2017-08-11T07:13:46.051Z,8.50
2017-08-11T07:16:12.883Z,9.53
2017-08-11T07:18:40.390Z,10.33
2017-08-11T07:21:07.890Z,7.63
2017-08-11T07:23:36.130Z,9.87
2017-08-11T07:26:03.627Z,9.93
2017-08-11T07:28:31.130Z,14.20
2017-08-11T07:30:59.211Z,6.20
2017-08-11T07:33:26.706Z,10.10
2017-08-11T07:35:54.207Z,8.53
2017-08-11T07:38:21.998Z,6.90
2017-08-11T07:40:49.490Z,9.40
2017-08-11T07:43:16.995Z,8.97
2017-08-11T07:45:44.539Z,8.93
2017-08-11T07:48:12.035Z,6.80
2017-08-11T07:50:39.532Z,9.17
2017-08-11T07:53:07.134Z,9.20
2017-08-11T07:55:34.639Z,8.70
2017-08-11T07:58:02.135Z,8.00
2017-08-11T08:00:29.686Z,9.03
2017-08-11T08:02:57.208Z,8.73
2017-08-11T08:05:24.731Z,11.07
2017-08-11T08:07:52.634Z,6.57
2017-08-11T08:10:20.198Z,16.70
2017-08-11T08:12:47.699Z,7.97
2017-08-11T08:15:15.242Z,7.40
2017-08-11T08:17:42.759Z,10.80
2017-08-11T08:20:10.317Z,11.87
2017-08-11T08:22:38.151Z,7.97
2017-08-11T08:25:05.714Z,9.43
2017-08-11T08:27:33.209Z,7.00
2017-08-11T08:30:01.099Z,7.20
2017-08-11T08:32:28.596Z,9.47
2017-08-11T08:34:56.107Z,8.40
2017-08-11T08:37:23.907Z,7.60
2017-08-11T08:39:51.410Z,11.17
2017-08-11T08:42:18.915Z,10.13
2017-08-11T08:44:46.718Z,12.53
2017-08-11T08:47:14.228Z,7.90
2017-08-11T08:49:41.726Z,9.80
2017-08-11T08:52:09.539Z,8.80
2017-08-11T08:54:37.042Z,10.10
2017-08-11T08:57:04.543Z,7.93
2017-08-11T08:59:32.315Z,8.90
2017-08-11T09:01:59.818Z,10.23
2017-08-11T09:04:27.320Z,8.13
2017-08-11T09:06:55.111Z,7.87
2017-08-11T09:09:22.606Z,6.30
2017-08-11T09:11:50.584Z,7.13
2017-08-11T09:14:18.187Z,6.33
2017-08-11T09:16:45.694Z,6.57
2017-08-11T09:19:13.192Z,6.60
2017-08-11T09:21:40.747Z,6.30
2017-08-11T09:24:08.360Z,7.67
2017-08-11T09:26:48.094Z,8.90
2017-08-11T09:29:40.197Z,7.90
2017-08-11T09:32:19.405Z,7.50
2017-08-11T09:34:58.612Z,7.40
2017-08-11T09:37:26.394Z,7.10
2017-08-11T09:39:53.898Z,8.07
2017-08-11T09:42:21.408Z,5.50
2017-08-11T09:44:48.955Z,7.63
2017-08-11T09:47:16.452Z,7.67
2017-08-11T09:49:43.997Z,6.90
2017-08-11T09:52:11.934Z,9.33
2017-08-11T09:54:39.434Z,10.40
2017-08-11T09:57:06.935Z,11.43
2017-08-11T09:59:34.499Z,10.90
2017-08-11T10:02:02.011Z,11.67
2017-08-11T10:04:29.531Z,13.93
2017-08-11T10:06:57.102Z,15.43
2017-08-11T10:09:24.618Z,14.63
2017-08-11T10:11:52.421Z,13.40
2017-08-11T10:14:20.067Z,15.90
2017-08-11T10:16:47.814Z,13.60
2017-08-11T10:19:15.610Z,11.13
2017-08-11T10:21:43.230Z,12.30
2017-08-11T10:24:13.476Z,12.47
2017-08-11T10:26:41.270Z,10.77
2017-08-11T10:29:08.862Z,12.23
2017-08-11T10:31:36.358Z,16.47
2017-08-11T10:34:04.087Z,11.90
2017-08-11T10:36:31.921Z,11.10
2017-08-11T10:38:59.519Z,14.67
2017-08-11T10:41:27.314Z,13.27
2017-08-11T10:43:54.747Z,13.30
2017-08-11T10:46:22.560Z,13.60
2017-08-11T10:48:50.182Z,13.30
2017-08-11T10:51:17.682Z,13.73
2017-08-11T10:53:45.405Z,12.40
2017-08-11T10:56:13.208Z,16.20
2017-08-11T10:58:40.816Z,12.73
2017-08-11T11:01:08.370Z,15.80
2017-08-11T11:03:36.079Z,14.10
2017-08-11T11:06:03.849Z,15.97
2017-08-11T11:08:31.507Z,16.47
2017-08-11T11:10:59.020Z,14.73
2017-08-11T11:13:26.730Z,16.40
2017-08-11T11:15:54.506Z,16.70
2017-08-11T11:18:22.090Z,12.73
2017-08-11T11:20:49.624Z,13.77
2017-08-11T11:23:17.379Z,15.17
2017-08-11T11:25:45.163Z,15.07
2017-08-11T11:28:12.788Z,18.70
2017-08-11T11:30:40.580Z,15.83
2017-08-11T11:33:08.082Z,15.13
2017-08-11T11:35:35.635Z,14.80
2017-08-11T11:38:03.662Z,19.03
2017-08-11T11:40:31.166Z,17.87
2017-08-11T11:42:58.690Z,16.90
2017-08-11T11:45:26.343Z,15.93
2017-08-11T11:47:53.856Z,17.63
2017-08-11T11:50:21.355Z,15.00
2017-08-11T11:52:48.917Z,15.03
2017-08-11T11:55:16.426Z,16.93
2017-08-11T11:57:43.927Z,17.30
2017-08-11T12:00:11.838Z,14.33
2017-08-11T12:02:39.400Z,18.37
2017-08-11T12:05:06.910Z,19.57
2017-08-11T12:07:34.747Z,17.33
2017-08-11T12:10:02.261Z,21.43
2017-08-11T12:12:29.770Z,22.83
2017-08-11T12:14:57.675Z,25.30
2017-08-11T12:17:25.174Z,26.57
2017-08-11T12:19:52.675Z,30.53
2017-08-11T12:22:20.260Z,25.90
2017-08-11T12:24:47.762Z,22.37
2017-08-11T12:27:15.267Z,22.87
2017-08-11T12:29:43.062Z,25.03
2017-08-11T12:32:10.567Z,22.00
2017-08-11T12:34:38.075Z,21.07
2017-08-11T12:37:05.626Z,26.53
2017-08-11T12:39:33.128Z,25.00
2017-08-11T12:42:00.637Z,24.03
2017-08-11T12:44:28.593Z,24.30
2017-08-11T12:46:56.098Z,26.40
2017-08-11T12:49:23.603Z,26.97
2017-08-11T12:51:51.176Z,24.33
2017-08-11T12:54:18.687Z,25.30
2017-08-11T12:56:46.198Z,25.17
2017-08-11T12:59:13.787Z,23.70
2017-08-11T13:01:41.971Z,31.47
2017-08-11T13:04:09.510Z,21.10
2017-08-11T13:06:37.066Z,25.33
2017-08-11T13:09:04.583Z,23.77
2017-08-11T13:11:32.090Z,26.03
2017-08-11T13:13:59.719Z,34.00
2017-08-11T13:16:27.225Z,25.73
2017-08-11T13:18:54.734Z,32.13
2017-08-11T13:21:22.359Z,32.17
2017-08-11T13:23:49.878Z,29.17
2017-08-11T13:26:17.434Z,28.13
2017-08-11T13:28:45.290Z,30.80
2017-08-11T13:31:12.787Z,32.77
2017-08-11T13:33:39.687Z,36.00
2017-08-11T13:36:07.503Z,34.13
2017-08-11T13:38:35.212Z,34.07
2017-08-11T13:41:02.740Z,28.87
2017-08-11T13:43:30.299Z,27.80
2017-08-11T13:45:57.798Z,25.10
2017-08-11T13:48:25.801Z,24.57
2017-08-11T13:50:53.390Z,33.37
2017-08-11T13:53:20.943Z,32.30
2017-08-11T13:55:48.500Z,29.33
2017-08-11T13:58:16.111Z,30.17
2017-08-11T14:00:43.619Z,29.43
2017-08-11T14:03:11.207Z,23.87
2017-08-11T14:05:38.908Z,26.13
2017-08-11T14:08:06.519Z,26.13
2017-08-11T14:10:34.062Z,29.83
2017-08-11T14:13:01.756Z,31.70
2017-08-11T14:15:29.579Z,31.00
2017-08-11T14:17:57.239Z,26.00
2017-08-11T14:20:24.970Z,27.60
2017-08-11T14:22:52.478Z,28.97
2017-08-11T14:25:20.097Z,35.30
2017-08-11T14:27:47.598Z,28.00
2017-08-11T14:30:15.247Z,24.80
2017-08-11T14:32:42.963Z,28.43
2017-08-11T14:35:10.470Z,31.63
2017-08-11T14:37:37.982Z,26.77
2017-08-11T14:40:05.888Z,25.60
2017-08-11T14:42:33.404Z,29.07
2017-08-11T14:45:00.912Z,27.70
2017-08-11T14:47:28.890Z,23.43
2017-08-11T14:49:56.394Z,25.17
2017-08-11T14:52:23.917Z,31.87
2017-08-11T14:54:51.695Z,24.57
2017-08-11T14:57:19.201Z,26.73
2017-08-11T14:59:46.712Z,30.40
2017-08-11T15:02:14.619Z,29.27
2017-08-11T15:04:42.118Z,29.53
2017-08-11T15:07:09.623Z,30.57
2017-08-11T15:09:37.275Z,30.23
2017-08-11T15:12:04.783Z,28.70
2017-08-11T15:14:32.303Z,27.97
2017-08-11T15:17:00.096Z,25.73
2017-08-11T15:19:27.608Z,31.13
2017-08-11T15:21:55.379Z,29.27
2017-08-11T15:24:23.182Z,22.43
2017-08-11T15:26:50.686Z,34.03
2017-08-11T15:29:18.203Z,32.20
2017-08-11T15:31:45.759Z,46.33
2017-08-11T15:34:13.263Z,62.33
2017-08-11T15:36:40.788Z,139.90
2017-08-11T15:39:08.725Z,33.03
2017-08-11T15:41:36.238Z,38.63
2017-08-11T15:44:03.754Z,64.00
2017-08-11T15:46:31.574Z,129.00
2017-08-11T15:48:59.086Z,57.60
2017-08-11T15:51:26.613Z,38.50
2017-08-11T15:53:54.740Z,35.90
2017-08-11T15:56:22.246Z,28.77
2017-08-11T15:58:49.755Z,45.50
2017-08-11T16:01:17.351Z,34.47
2017-08-11T16:03:44.860Z,74.07
2017-08-11T16:06:12.499Z,36.47
2017-08-11T16:08:40.826Z,38.40
2017-08-11T16:11:08.356Z,41.57
2017-08-11T16:13:35.943Z,38.13
2017-08-11T16:16:03.589Z,39.83
2017-08-11T16:18:31.091Z,46.63
2017-08-11T16:20:58.839Z,42.43
2017-08-11T16:23:26.510Z,42.97
2017-08-11T16:25:54.055Z,46.77
2017-08-11T16:28:21.631Z,41.80
2017-08-11T16:30:49.179Z,33.10
2017-08-11T16:33:16.704Z,41.23
2017-08-11T16:35:44.207Z,40.40
2017-08-11T16:38:12.032Z,40.67
2017-08-11T16:40:39.567Z,34.30
2017-08-11T16:43:07.137Z,47.40
2017-08-11T16:45:35.239Z,40.30
2017-08-11T16:48:03.503Z,62.20
2017-08-11T16:50:31.483Z,49.27
2017-08-11T16:52:59.032Z,45.60
2017-08-11T16:55:26.594Z,54.70
2017-08-11T16:57:54.104Z,40.13
2017-08-11T17:00:21.645Z,55.57
2017-08-11T17:02:49.766Z,52.07
2017-08-11T17:05:17.334Z,50.97
2017-08-11T17:07:44.863Z,55.10
2017-08-11T17:10:12.694Z,44.93
2017-08-11T17:12:40.210Z,44.97
2017-08-11T17:15:07.737Z,49.80
2017-08-11T17:17:35.282Z,41.10
2017-08-11T17:20:02.799Z,41.30
2017-08-11T17:22:30.358Z,41.50
2017-08-11T17:24:58.226Z,42.37
2017-08-11T17:27:25.742Z,43.83
2017-08-11T17:29:53.249Z,45.93
2017-08-11T17:32:20.820Z,44.20
2017-08-11T17:34:48.327Z,42.23
2017-08-11T17:37:15.834Z,44.43
2017-08-11T17:39:43.790Z,51.07
2017-08-11T17:42:11.295Z,45.77
2017-08-11T17:44:38.803Z,37.47
2017-08-11T17:47:06.366Z,39.03
2017-08-11T17:49:33.866Z,36.43
2017-08-11T17:52:01.426Z,38.10
2017-08-11T17:54:29.002Z,33.87
2017-08-11T17:56:56.530Z,40.77
2017-08-11T17:59:24.055Z,38.87
2017-08-11T18:01:51.913Z,28.63
2017-08-11T18:04:19.428Z,30.33
2017-08-11T18:06:46.965Z,26.33
2017-08-11T18:09:14.899Z,25.83
2017-08-11T18:11:42.467Z,27.47
2017-08-11T18:14:09.983Z,25.10
2017-08-11T18:16:37.512Z,32.50
2017-08-11T18:19:05.021Z,29.17
2017-08-11T18:21:32.528Z,23.83
2017-08-11T18:24:00.555Z,24.27
2017-08-11T18:26:28.078Z,26.27
2017-08-11T18:28:55.739Z,27.50
2017-08-11T18:31:23.314Z,33.13
2017-08-11T18:33:50.830Z,28.73
2017-08-11T18:36:18.351Z,36.00
2017-08-11T18:38:46.519Z,36.70
2017-08-11T18:41:14.030Z,40.73
2017-08-11T18:43:41.554Z,40.43
2017-08-11T18:46:09.256Z,40.77
2017-08-11T18:48:36.802Z,41.63
2017-08-11T18:51:04.336Z,39.00
2017-08-11T18:53:32.127Z,41.73
2017-08-11T18:55:59.647Z,37.77
2017-08-11T18:58:27.215Z,47.00
2017-08-11T19:00:54.850Z,39.93
2017-08-11T19:03:22.371Z,41.40
2017-08-11T19:05:49.906Z,40.57
2017-08-11T19:08:17.478Z,39.23
2017-08-11T19:10:45.043Z,41.23
2017-08-11T19:13:12.542Z,39.37
2017-08-11T19:15:40.454Z,32.60
2017-08-11T19:18:07.960Z,33.03
2017-08-11T19:20:35.487Z,44.23
2017-08-11T19:23:03.618Z,44.37
2017-08-11T19:25:31.131Z,41.77
2017-08-11T19:27:58.669Z,32.50
2017-08-11T19:30:26.477Z,30.27
2017-08-11T19:32:54.008Z,37.80
2017-08-11T19:35:21.515Z,33.33
2017-08-11T19:37:49.210Z,37.53
2017-08-11T19:40:16.724Z,39.67
2017-08-11T19:42:44.271Z,37.10
2017-08-11T19:45:12.134Z,42.87
2017-08-11T19:47:39.783Z,41.97
2017-08-11T19:50:07.302Z,36.17
2017-08-11T19:52:34.999Z,45.37
2017-08-11T19:55:02.565Z,50.43
2017-08-11T19:57:30.087Z,52.03
2017-08-11T19:59:57.983Z,39.33
2017-08-11T20:02:25.568Z,41.53
2017-08-11T20:04:53.123Z,46.43
2017-08-11T20:07:20.747Z,48.47
2017-08-11T20:09:48.255Z,48.50
2017-08-11T20:12:15.792Z,50.00
2017-08-11T20:14:43.412Z,60.57
2017-08-11T20:17:10.937Z,51.20
2017-08-11T20:19:38.468Z,54.77
2017-08-11T20:22:06.452Z,58.10
2017-08-11T20:24:34.006Z,52.80
2017-08-11T20:27:01.587Z,58.43
2017-08-11T20:29:29.411Z,74.53
2017-08-11T20:31:56.927Z,67.73
2017-08-11T20:34:24.440Z,63.70
2017-08-11T20:36:51.995Z,78.40
2017-08-11T20:39:19.511Z,63.73
2017-08-11T20:41:47.116Z,65.20
2017-08-11T20:44:14.990Z,71.87
2017-08-11T20:46:42.494Z,68.33
2017-08-11T20:49:10.637Z,48.60
2017-08-11T20:51:38.563Z,53.70
2017-08-11T20:54:06.108Z,52.00
2017-08-11T20:56:33.644Z,51.00
2017-08-11T20:59:01.476Z,45.23
2017-08-11T21:01:29.011Z,48.50
2017-08-11T21:03:56.591Z,57.57
2017-08-11T21:06:24.571Z,54.73
2017-08-11T21:08:52.283Z,75.07
2017-08-11T21:11:19.787Z,47.97
2017-08-11T21:13:47.368Z,60.77
2017-08-11T21:16:14.987Z,59.60
2017-08-11T21:18:42.491Z,51.83
2017-08-11T21:21:10.554Z,56.70
2017-08-11T21:23:38.072Z,54.63
2017-08-11T21:26:05.590Z,58.00
2017-08-11T21:28:33.132Z,77.33
2017-08-11T21:31:00.644Z,55.70
2017-08-11T21:33:28.930Z,56.37
2017-08-11T21:35:56.542Z,61.80
2017-08-11T21:38:24.499Z,66.37
2017-08-11T21:40:52.303Z,63.13
2017-08-11T21:43:20.906Z,55.77
2017-08-11T21:45:48.537Z,63.80
2017-08-11T21:48:16.054Z,51.80
2017-08-11T21:50:44.011Z,48.37
2017-08-11T21:53:11.958Z,55.10
2017-08-11T21:55:39.498Z,59.23
2017-08-11T21:58:07.046Z,59.33
2017-08-11T22:00:34.554Z,72.13
2017-08-11T22:03:02.066Z,73.40
2017-08-11T22:05:29.676Z,54.37
2017-08-11T22:07:57.208Z,59.77
2017-08-11T22:10:24.753Z,61.70
2017-08-11T22:12:52.325Z,64.77
2017-08-11T22:15:20.607Z,75.43
2017-08-11T22:17:48.882Z,64.00
2017-08-11T22:20:17.207Z,82.13
2017-08-11T22:22:44.737Z,67.40
2017-08-11T22:25:12.296Z,62.43
2017-08-11T22:27:40.898Z,68.13
2017-08-11T22:30:08.675Z,78.93
2017-08-11T22:32:36.471Z,66.87
2017-08-11T22:35:04.073Z,64.23
2017-08-11T22:37:31.585Z,62.00
2017-08-11T22:39:59.101Z,59.03
2017-08-11T22:42:26.666Z,56.23
2017-08-11T22:44:54.201Z,54.50
2017-08-11T22:47:22.462Z,47.20
2017-08-11T22:49:51.280Z,49.90
2017-08-11T22:52:18.798Z,47.13
2017-08-11T22:54:46.408Z,59.13
2017-08-11T22:57:14.462Z,59.60
2017-08-11T22:59:41.974Z,57.20
2017-08-11T23:02:09.483Z,54.97
2017-08-11T23:04:37.042Z,47.07
2017-08-11T23:07:04.546Z,61.73
2017-08-11T23:09:32.073Z,45.23
2017-08-11T23:11:59.675Z,50.17
2017-08-11T23:14:27.204Z,48.80
2017-08-11T23:16:54.706Z,52.83
2017-08-11T23:19:22.492Z,42.97
2017-08-11T23:21:50.005Z,41.37
2017-08-11T23:24:17.612Z,51.50
2017-08-11T23:26:45.194Z,41.03
2017-08-11T23:29:12.720Z,47.50
2017-08-11T23:31:40.239Z,48.73
2017-08-11T23:34:07.796Z,36.80
2017-08-11T23:36:35.333Z,46.80
2017-08-11T23:39:03.213Z,42.87
2017-08-11T23:41:31.258Z,35.70
2017-08-11T23:43:58.766Z,42.87
2017-08-11T23:46:26.294Z,36.43
2017-08-11T23:48:53.854Z,50.27
2017-08-11T23:51:21.418Z,38.13
2017-08-11T23:53:48.926Z,55.17
2017-08-11T23:56:16.803Z,41.10
2017-08-11T23:58:44.319Z,38.93
